This is the latest recevied weather packets stored in our database for station/object KJ4HF. If no packets are shown the sender has not sent any weather packets the latest 10 day(s).
| Time | Temp. | Humidity | Pressure | Rain* | Wind** | Luminosity | Snow |
|---|---|---|---|---|---|---|---|
| 1778327153 | 13.33° C | 89% | 1013.2 hPa | 0 mm | - | 76 W/m² | - |
| 1778326844 | 13.33° C | 89% | 1013.5 hPa | 0 mm | - | 86 W/m² | - |
| 1778326544 | 12.78° C | 89% | 1013.4 hPa | 0 mm | - | 102 W/m² | - |
| 1778325044 | 12.22° C | 89% | 1013.2 hPa | 0 mm | - | 40 W/m² | - |
| 1778324452 | 11.67° C | 90% | 1013.1 hPa | 0 mm | - | 39 W/m² | - |
| 1778323242 | 10.56° C | 91% | 1013.1 hPa | 0 mm | - | 18 W/m² | - |
| 1778322663 | 10° C | 91% | 1012.9 hPa | 0 mm | - | 12 W/m² | - |
| 1778322044 | 10° C | 91% | 1012.8 hPa | 0 mm | - | 0 W/m² | - |
| 1778319951 | 9.44° C | 90% | 1012.4 hPa | 0 mm | - | 0 W/m² | - |
| 1778318151 | 10° C | 88% | 1012.8 hPa | 0 mm | - | 0 W/m² | - |
| 1778317842 | 10° C | 88% | 1012.8 hPa | 0 mm | - | 0 W/m² | - |
| 1778313650 | 11.11° C | 83% | 1012.8 hPa | 0 mm | - | 0 W/m² | - |
| 1778311852 | 12.22° C | 79% | 1013.4 hPa | 0 mm | - | 0 W/m² | - |
| 1778311243 | 11.67° C | 81% | 1013.2 hPa | 0 mm | - | 0 W/m² | - |
| 1778307372 | 12.22° C | 80% | 1013.9 hPa | 0 mm | - | 0 W/m² | - |
| 1778307046 | 12.78° C | 78% | 1013.8 hPa | 0 mm | - | 0 W/m² | - |
| 1778306142 | 13.33° C | 78% | 1014.2 hPa | 0 mm | - | 0 W/m² | - |
| 1778305242 | 13.33° C | 78% | 1014.5 hPa | 0 mm | - | 0 W/m² | - |
| 1778304343 | 13.33° C | 73% | 1014.8 hPa | 0 mm | - | 0 W/m² | - |
| 1778303142 | 13.89° C | 70% | 1014.9 hPa | 0 mm | - | 0 W/m² | - |
| 1778302851 | 13.89° C | 69% | 1014.9 hPa | 0 mm | - | 0 W/m² | - |
| 1778297450 | 14.44° C | 69% | 1015.1 hPa | 0 mm | - | 0 W/m² | - |
| 1778295654 | 13.89° C | 70% | 1015 hPa | 0 mm | - | 0 W/m² | - |
| 1778291151 | 13.89° C | 76% | 1015.1 hPa | 0 mm | - | 0 W/m² | - |
| 1778289353 | 13.89° C | 74% | 1015 hPa | 0 mm | - | 0 W/m² | - |
* Rain latest hour (hover to see other rain measurements)
** Current wind speed in m/s (hover to see current wind gust speed)